Time;durP1;ratioP1;P1;durP2;ratioP2;P2;SDS_P1;SDS_P2;PMS_P1;PMS_P2;Temp;Humidity;BMP_temperature;BMP_pressure;BME280_temperature;BME280_humidity;BME280_pressure;Samples;Min_cycle;Max_cycle;Signal;HPM_P1;HPM_P2
2023/04/04 00:01:02;;;;;;;;;;;128.00;2252.80;;;;;;5076475;28;20029;-70
2023/04/04 00:03:28;;;;;;;8.73;4.07;;;128.00;2252.80;;;;;;5075930;28;20368;-69
2023/04/04 00:05:54;;;;;;;;;;;103.30;2227.20;;;;;;5071018;28;20031;-69
2023/04/04 00:08:20;;;;;;;11.70;4.07;;;103.30;2227.20;;;;;;5075704;28;20327;-69
2023/04/04 00:10:46;;;;;;;9.65;4.32;;;103.20;2227.20;;;;;;5076030;28;20561;-71
2023/04/04 00:13:12;;;;;;;;;;;103.20;2227.20;;;;;;5076654;28;20051;-70
2023/04/04 00:15:37;;;;;;;10.25;4.15;;;103.20;2227.20;;;;;;5076636;28;19904;-69
2023/04/04 00:18:03;;;;;;;;;;;103.30;2227.20;;;;;;5075958;28;20064;-69
2023/04/04 00:20:32;;;;;;;16.02;3.67;;;103.30;2227.20;;;;;;5075610;28;19920;-69
2023/04/04 00:22:57;;;;;;;20.25;3.88;;;103.20;2227.20;;;;;;5073575;28;20146;-69
2023/04/04 00:25:23;;;;;;;;;;;103.30;2227.20;;;;;;5076273;28;20063;-71
2023/04/04 00:27:49;;;;;;;12.65;3.95;;;103.30;2227.20;;;;;;5073472;28;19912;-69
2023/04/04 00:30:14;;;;;;;;;;;103.30;2227.20;;;;;;5076439;28;20028;-69
2023/04/04 00:32:40;;;;;;;17.30;3.97;;;103.30;2227.20;;;;;;5070642;28;19905;-69
2023/04/04 00:35:06;;;;;;;;;;;103.20;2227.20;;;;;;5075865;28;20052;-69
2023/04/04 00:37:32;;;;;;;10.43;3.97;;;103.20;2227.20;;;;;;5075110;28;19963;-70
2023/04/04 00:39:58;;;;;;;13.15;4.15;;;103.20;2227.20;;;;;;5075966;28;20029;-69
2023/04/04 00:42:24;;;;;;;;;;;103.20;2227.20;;;;;;5075986;28;20055;-71
2023/04/04 00:44:51;;;;;;;11.18;3.90;;;103.20;2227.20;;;;;;5076548;28;19904;-70
2023/04/04 00:47:17;;;;;;;14.38;4.00;;;103.20;2227.20;;;;;;5076318;28;20028;-71
2023/04/04 00:49:43;;;;;;;;;;;103.20;2227.20;;;;;;5076281;28;20390;-69
2023/04/04 00:52:09;;;;;;;6.00;2.97;;;103.20;2227.20;;;;;;5076334;28;19982;-69
2023/04/04 00:54:35;;;;;;;;;;;103.10;2227.20;;;;;;5076352;28;20060;-69
2023/04/04 00:57:03;;;;;;;13.10;3.78;;;103.10;2227.20;;;;;;5076202;28;20281;-70
2023/04/04 00:59:30;;;;;;;8.43;3.70;;;103.10;2227.20;;;;;;5074068;28;20420;-68
2023/04/04 01:01:56;;;;;;;10.50;4.60;;;103.10;2227.20;;;;;;5075555;28;20029;-68
2023/04/04 01:04:22;;;;;;;12.10;4.60;;;103.00;2227.20;;;;;;5075388;28;20029;-70
2023/04/04 01:06:48;;;;;;;;;;;102.90;2227.20;;;;;;5075754;28;20024;-70
2023/04/04 01:09:14;;;;;;;13.18;3.50;;;102.80;2227.20;;;;;;5075236;28;20007;-69
2023/04/04 01:11:40;;;;;;;;;;;102.80;2227.20;;;;;;5076315;28;20105;-69
2023/04/04 01:14:05;;;;;;;9.73;4.00;;;102.90;2227.20;;;;;;5075102;28;19904;-69
2023/04/04 01:16:31;;;;;;;;;;;102.90;2227.20;;;;;;5075573;28;20031;-69
2023/04/04 01:18:57;;;;;;;10.95;3.75;;;102.90;2227.20;;;;;;5074973;28;19915;-70
2023/04/04 01:21:22;;;;;;;;;;;102.90;2227.20;;;;;;5075614;28;20040;-69
2023/04/04 01:24:00;;;;;;;9.75;4.13;;;103.00;2227.20;;;;;;5075239;28;19930;-69
2023/04/04 01:26:26;;;;;;;10.77;4.18;;;102.90;2227.20;;;;;;5075204;28;20024;-69
2023/04/04 01:28:53;;;;;;;13.48;4.63;;;103.00;2227.20;;;;;;5075202;28;20055;-69
2023/04/04 01:31:32;;;;;;;10.45;3.83;;;103.00;2227.20;;;;;;5075232;28;20028;-69
2023/04/04 01:34:15;;;;;;;8.77;3.50;;;103.00;2227.20;;;;;;5075434;28;20028;-78
2023/04/04 01:36:56;;;;;;;12.35;4.53;;;103.10;2227.20;;;;;;5075199;28;20059;-69
2023/04/04 01:39:24;;;;;;;6.50;3.30;;;103.10;2227.20;;;;;;5074761;28;20024;-71
2023/04/04 01:41:50;;;;;;;7.45;4.03;;;102.90;2227.20;;;;;;5074758;28;20032;-78
2023/04/04 01:44:17;;;;;;;9.95;4.18;;;102.90;2227.20;;;;;;5074287;28;20017;-79
2023/04/04 01:46:43;;;;;;;8.15;3.60;;;103.00;2227.20;;;;;;5074728;28;20024;-69
2023/04/04 01:49:09;;;;;;;;;;;103.00;2227.20;;;;;;5074923;28;20379;-70
2023/04/04 01:51:34;;;;;;;8.80;3.70;;;103.00;2227.20;;;;;;5074589;28;19987;-69
2023/04/04 01:54:00;;;;;;;;;;;103.00;2227.20;;;;;;5074894;28;20146;-69
2023/04/04 01:56:26;;;;;;;8.65;3.97;;;103.10;2227.20;;;;;;5074587;28;19908;-69
2023/04/04 01:58:52;;;;;;;;;;;103.10;2227.20;;;;;;5074794;28;20393;-70
2023/04/04 02:01:18;;;;;;;10.82;5.15;;;103.00;2227.20;;;;;;5074711;28;19913;-69
2023/04/04 02:03:44;;;;;;;8.68;3.95;;;103.00;2227.20;;;;;;5074271;28;20474;-68
2023/04/04 02:06:10;;;;;;;;;;;103.00;2227.20;;;;;;5074957;28;20035;-78
2023/04/04 02:08:37;;;;;;;9.60;4.20;;;103.00;2227.20;;;;;;5073049;28;20285;-73
2023/04/04 02:11:02;;;;;;;11.68;4.10;;;102.90;2227.20;;;;;;5074080;28;20051;-69
2023/04/04 02:13:28;;;;;;;;;;;102.90;2227.20;;;;;;5074651;28;20435;-68
2023/04/04 02:15:54;;;;;;;11.75;5.97;;;102.80;2227.20;;;;;;5074089;28;19904;-78
2023/04/04 02:18:19;;;;;;;;;;;102.90;2227.20;;;;;;5074538;28;20028;-77
2023/04/04 02:20:45;;;;;;;30.23;6.15;;;102.80;2227.20;;;;;;5074215;28;20365;-70
2023/04/04 02:23:10;;;;;;;;;;;102.80;2227.20;;;;;;5074265;28;20496;-69
2023/04/04 02:25:36;;;;;;;9.88;4.78;;;102.80;2227.20;;;;;;5073903;28;19911;-77
2023/04/04 02:28:02;;;;;;;;;;;102.80;2227.20;;;;;;5073003;28;20029;-69
2023/04/04 02:30:27;;;;;;;9.75;4.30;;;102.90;2227.20;;;;;;5073766;28;19911;-70
2023/04/04 02:32:56;;;;;;;;;;;102.80;2227.20;;;;;;5074424;28;20097;-69
2023/04/04 02:35:22;;;;;;;8.73;4.47;;;102.90;2227.20;;;;;;5073676;28;20303;-70
2023/04/04 02:37:47;;;;;;;;;;;102.80;2227.20;;;;;;5074212;28;20024;-70
2023/04/04 02:40:13;;;;;;;6.22;3.65;;;102.70;2227.20;;;;;;5073269;28;20468;-68
2023/04/04 02:42:43;;;;;;;;;;;102.70;2227.20;;;;;;5074070;28;20468;-69
2023/04/04 02:45:10;;;;;;;9.15;3.78;;;102.70;2227.20;;;;;;5073382;28;19905;-68
2023/04/04 02:47:36;;;;;;;7.65;4.15;;;102.70;2227.20;;;;;;5073204;28;20025;-70
2023/04/04 02:50:02;;;;;;;12.80;3.83;;;102.70;2227.20;;;;;;5073860;28;20026;-70
2023/04/04 02:52:28;;;;;;;;;;;102.70;2227.20;;;;;;5074029;28;20404;-69
2023/04/04 02:54:54;;;;;;;12.38;4.47;;;102.60;2227.20;;;;;;5072712;28;19958;-70
2023/04/04 02:57:20;;;;;;;7.60;4.10;;;102.80;2227.20;;;;;;5073548;28;20043;-76
2023/04/04 02:59:45;;;;;;;;;;;102.70;2227.20;;;;;;5074211;28;20118;-79
2023/04/04 03:02:11;;;;;;;8.00;4.18;;;102.60;2227.20;;;;;;5072887;28;19955;-78
2023/04/04 03:04:37;;;;;;;;;;;102.60;2227.20;;;;;;5073203;28;20020;-69
2023/04/04 03:07:02;;;;;;;11.75;4.30;;;102.60;2227.20;;;;;;5072678;28;19904;-70
2023/04/04 03:09:28;;;;;;;;;;;102.50;2227.20;;;;;;5072935;28;20441;-69
2023/04/04 03:11:54;;;;;;;8.50;3.83;;;102.50;2227.20;;;;;;5072503;28;19949;-69
2023/04/04 03:14:19;;;;;;;;;;;102.40;2227.20;;;;;;5073045;28;20049;-69
2023/04/04 03:16:48;;;;;;;8.00;3.92;;;102.40;2227.20;;;;;;5087960;28;19949;-69
2023/04/04 03:19:14;;;;;;;13.20;4.28;;;77.70;2227.20;;;;;;5072588;28;20021;-69
2023/04/04 03:21:40;;;;;;;9.05;3.95;;;77.70;2227.20;;;;;;5072498;28;20044;-69
2023/04/04 03:24:06;;;;;;;;;;;77.70;2227.20;;;;;;5073464;28;20036;-70
2023/04/04 03:26:32;;;;;;;14.55;4.25;;;77.60;2227.20;;;;;;5072910;28;19912;-69
2023/04/04 03:28:57;;;;;;;;;;;77.60;2227.20;;;;;;5072866;28;20029;-69
2023/04/04 03:31:23;;;;;;;11.77;4.70;;;77.50;2227.20;;;;;;5072277;28;19950;-69
2023/04/04 03:33:49;;;;;;;;;;;77.60;2227.20;;;;;;5072961;28;20020;-69
2023/04/04 03:36:15;;;;;;;8.48;4.68;;;77.50;2227.20;;;;;;5072485;28;19904;-69
2023/04/04 03:38:41;;;;;;;7.70;4.57;;;77.40;2227.20;;;;;;5072559;28;20040;-78
2023/04/04 03:41:07;;;;;;;;;;;77.50;2227.20;;;;;;5072905;28;20102;-72
2023/04/04 03:43:33;;;;;;;10.85;4.63;;;77.50;2227.20;;;;;;5072310;28;19914;-69
2023/04/04 03:46:00;;;;;;;11.38;5.28;;;77.50;2227.20;;;;;;5072581;28;20497;-70
2023/04/04 03:48:27;;;;;;;15.65;6.32;;;77.40;2227.20;;;;;;5072087;28;20106;-69
2023/04/04 03:50:52;;;;;;;14.35;5.18;;;77.40;2227.20;;;;;;5072452;28;20033;-72
2023/04/04 03:53:18;;;;;;;;;;;77.40;2227.20;;;;;;5072594;28;20036;-70
2023/04/04 03:55:43;;;;;;;10.80;4.45;;;77.40;2227.20;;;;;;5072211;28;19904;-69
2023/04/04 03:58:09;;;;;;;;;;;77.30;2227.20;;;;;;5072848;28;20071;-69
2023/04/04 04:00:35;;;;;;;12.65;4.47;;;77.30;2227.20;;;;;;5072201;28;19908;-78
2023/04/04 04:03:00;;;;;;;;;;;77.20;2227.20;;;;;;5072439;28;20426;-70
2023/04/04 04:05:26;;;;;;;10.15;4.15;;;77.20;2227.20;;;;;;5072012;28;19904;-69
2023/04/04 04:07:52;;;;;;;;;;;77.00;2227.20;;;;;;5075897;28;20139;-70
2023/04/04 04:10:18;;;;;;;10.70;4.55;;;77.00;2227.20;;;;;;5075469;28;19973;-69
2023/04/04 04:12:43;;;;;;;;;;;77.10;2227.20;;;;;;5076106;28;20035;-69
2023/04/04 04:15:09;;;;;;;8.73;4.43;;;76.90;2227.20;;;;;;5075573;28;19904;-69
2023/04/04 04:17:39;;;;;;;;;;;77.00;2227.20;;;;;;5075721;28;20016;-70
2023/04/04 04:20:08;;;;;;;10.70;4.53;;;76.90;2227.20;;;;;;5075745;28;19909;-69
2023/04/04 04:22:35;;;;;;;11.10;5.07;;;77.00;2227.20;;;;;;5075599;28;20111;-69
2023/04/04 04:25:00;;;;;;;12.48;6.55;;;76.90;2227.20;;;;;;5075412;28;20016;-70
2023/04/04 04:27:26;;;;;;;;;;;76.90;2227.20;;;;;;5075704;28;20031;-78
2023/04/04 04:29:52;;;;;;;15.23;6.13;;;76.90;2227.20;;;;;;5075639;28;19940;-73
2023/04/04 04:32:17;;;;;;;;;;;76.90;2227.20;;;;;;5075703;28;20100;-72
2023/04/04 04:34:43;;;;;;;10.90;5.78;;;76.90;2227.20;;;;;;5075510;28;19999;-69
2023/04/04 04:37:08;;;;;;;;;;;76.90;2227.20;;;;;;5075898;28;20070;-78
2023/04/04 04:39:35;;;;;;;10.55;5.00;;;76.80;2227.20;;;;;;5075409;28;20548;-69
2023/04/04 04:42:01;;;;;;;10.10;5.78;;;76.80;2227.20;;;;;;5075085;28;20036;-69
2023/04/04 04:44:27;;;;;;;11.02;5.13;;;52.10;2227.20;;;;;;5074999;28;20129;-69
2023/04/04 04:46:52;;;;;;;;;;;76.80;2227.20;;;;;;5075625;28;20104;-77
2023/04/04 04:49:18;;;;;;;14.40;5.65;;;52.10;2227.20;;;;;;5074924;28;20018;-71
2023/04/04 04:51:44;;;;;;;;;;;52.10;2227.20;;;;;;5075540;28;20024;-75
2023/04/04 04:54:10;;;;;;;11.57;5.70;;;52.10;2227.20;;;;;;5075254;28;19904;-70
2023/04/04 04:56:35;;;;;;;;;;;52.10;2227.20;;;;;;5075442;28;20095;-70
2023/04/04 04:59:01;;;;;;;10.07;5.22;;;52.10;2227.20;;;;;;5074943;28;19970;-70
2023/04/04 05:01:27;;;;;;;;;;;52.00;2227.20;;;;;;5075286;28;20036;-68
2023/04/04 05:03:53;;;;;;;20.60;5.43;;;52.10;2227.20;;;;;;5074807;28;19904;-69
2023/04/04 05:06:18;;;;;;;;;;;52.10;2227.20;;;;;;5075153;28;20629;-69
2023/04/04 05:08:44;;;;;;;12.63;5.30;;;52.10;2227.20;;;;;;5075002;28;20003;-69
2023/04/04 05:11:09;;;;;;;;;;;52.10;2227.20;;;;;;5075490;28;20163;-68
2023/04/04 05:13:36;;;;;;;14.52;5.90;;;52.10;2227.20;;;;;;5075049;28;19911;-68
2023/04/04 05:16:02;;;;;;;15.65;6.38;;;52.00;2227.20;;;;;;5075071;28;20043;-71
2023/04/04 05:18:28;;;;;;;12.98;7.35;;;52.00;2227.20;;;;;;5072731;28;20028;-68
2023/04/04 05:20:53;;;;;;;;;;;52.10;2227.20;;;;;;5069274;28;20371;-68
2023/04/04 05:23:19;;;;;;;14.15;5.90;;;52.10;2227.20;;;;;;5074268;28;20006;-68
2023/04/04 05:25:47;;;;;;;;;;;52.10;2227.20;;;;;;5075083;28;20066;-68
2023/04/04 05:28:13;;;;;;;15.55;5.85;;;52.10;2227.20;;;;;;5072952;28;19910;-69
2023/04/04 05:30:38;;;;;;;;;;;52.10;2227.20;;;;;;5074747;28;20456;-68
2023/04/04 05:57:50;;;;;;;17.35;9.77;;;51.80;2227.20;;;;;;5037168;28;20438;-67
2023/04/04 06:00:17;;;;;;;20.95;10.10;;;77.20;2227.20;;;;;;5010462;28;20030;-72
2023/04/04 06:02:43;;;;;;;15.70;8.00;;;77.00;2227.20;;;;;;5031862;28;20073;-71
2023/04/04 06:05:10;;;;;;;11.68;6.70;;;76.90;2227.20;;;;;;5023603;28;20035;-71
2023/04/04 06:07:36;;;;;;;18.58;8.07;;;76.90;2227.20;;;;;;5037903;28;20100;-72
2023/04/04 06:10:03;;;;;;;16.85;7.68;;;76.90;2227.20;;;;;;5034960;28;20050;-71
2023/04/04 06:12:28;;;;;;;15.95;8.65;;;76.90;2227.20;;;;;;5032771;28;20026;-71
2023/04/04 06:14:54;;;;;;;;;;;76.90;2227.20;;;;;;5030733;28;20084;-71
2023/04/04 06:17:20;;;;;;;17.08;8.02;;;76.80;2227.20;;;;;;5043227;28;19919;-68
2023/04/04 06:19:45;;;;;;;;;;;76.90;2227.20;;;;;;5031795;28;20136;-70
2023/04/04 06:22:11;;;;;;;14.07;7.10;;;76.80;2227.20;;;;;;5034381;28;19964;-70
2023/04/04 06:24:36;;;;;;;;;;;52.10;2227.20;;;;;;5036188;28;20468;-70
2023/04/04 06:27:02;;;;;;;13.35;7.15;;;76.80;2227.20;;;;;;5026758;28;19979;-70
2023/04/04 06:46:40;;;;;;;25.90;12.48;;;52.00;2227.20;;;;;;5110164;27;20945;-81
2023/04/04 06:49:06;;;;;;;22.15;9.68;;;77.20;2227.20;;;;;;5096584;28;20051;-80
2023/04/04 06:51:35;;;;;;;;;;;77.00;2227.20;;;;;;5089656;28;20122;-77
2023/04/04 06:54:01;;;;;;;20.05;8.93;;;76.90;2227.20;;;;;;5088114;28;19916;-70
2023/04/04 06:56:27;;;;;;;18.13;8.27;;;76.90;2227.20;;;;;;5076451;28;20108;-69
2023/04/04 06:58:52;;;;;;;;;;;76.80;2227.20;;;;;;5078182;28;20112;-71
2023/04/04 07:01:18;;;;;;;21.40;8.73;;;76.90;2227.20;;;;;;5081995;28;20315;-71
2023/04/04 07:03:44;;;;;;;;;;;76.80;2227.20;;;;;;5079967;28;20078;-70
2023/04/04 07:06:10;;;;;;;41.88;15.93;;;76.90;2227.20;;;;;;5074850;28;20425;-70
2023/04/04 07:08:36;;;;;;;;;;;76.80;2227.20;;;;;;5081573;28;20025;-75
2023/04/04 07:11:01;;;;;;;16.85;9.40;;;76.80;2227.20;;;;;;5070990;28;19915;-70
2023/04/04 07:13:27;;;;;;;;;;;52.10;2227.20;;;;;;5079257;28;20428;-69
2023/04/04 07:15:53;;;;;;;17.55;8.57;;;76.80;2227.20;;;;;;5079488;28;19921;-68
2023/04/04 07:18:18;;;;;;;;;;;52.10;2227.20;;;;;;5073652;28;20028;-70
2023/04/04 07:20:47;;;;;;;14.30;8.05;;;76.80;2227.20;;;;;;5092497;28;19995;-71
2023/04/04 07:23:14;;;;;;;13.73;7.68;;;52.10;2227.20;;;;;;5070671;28;20035;-71
2023/04/04 07:25:40;;;;;;;26.13;9.80;;;76.80;2227.20;;;;;;5097121;28;20028;-68
2023/04/04 07:28:05;;;;;;;;;;;76.80;2227.20;;;;;;5078980;28;20555;-68
2023/04/04 07:30:32;;;;;;;21.38;8.50;;;76.90;2227.20;;;;;;5075346;28;19911;-68
2023/04/04 07:32:58;;;;;;;20.48;10.13;;;76.80;2227.20;;;;;;5071548;28;20031;-69
2023/04/04 07:35:24;;;;;;;15.40;8.60;;;52.10;2227.20;;;;;;5081095;28;20040;-68
2023/04/04 07:37:51;;;;;;;;;;;52.10;2227.20;;;;;;5074732;28;20027;-71
2023/04/04 07:40:17;;;;;;;15.97;7.43;;;52.10;2227.20;;;;;;5078255;28;19959;-70
2023/04/04 07:42:49;;;;;;;18.83;9.82;;;52.10;2227.20;;;;;;5084328;28;20108;-69
2023/04/04 07:45:15;;;;;;;12.38;7.15;;;52.10;2227.20;;;;;;5078175;28;20048;-72
2023/04/04 07:47:44;;;;;;;;;;;76.80;2227.20;;;;;;5062144;28;20025;-69
2023/04/04 07:50:14;;;;;;;13.07;7.30;;;76.80;2227.20;;;;;;5062117;28;19909;-69
2023/04/04 07:52:40;;;;;;;14.50;6.68;;;76.80;2227.20;;;;;;5068135;28;20025;-69
2023/04/04 07:55:06;;;;;;;14.60;7.72;;;52.10;2227.20;;;;;;5064456;28;20401;-70
2023/04/04 07:57:38;;;;;;;13.75;7.97;;;52.10;2227.20;;;;;;5064543;28;20040;-71
2023/04/04 08:00:08;;;;;;;15.35;7.55;;;76.80;2227.20;;;;;;5060115;28;20029;-71
2023/04/04 08:02:37;;;;;;;15.18;8.00;;;76.90;2227.20;;;;;;5062026;28;20374;-72
2023/04/04 08:05:03;;;;;;;13.43;6.93;;;76.90;2227.20;;;;;;5064977;28;20021;-73
2023/04/04 08:07:29;;;;;;;;;;;76.90;2227.20;;;;;;5065093;28;20036;-72
2023/04/04 08:09:55;;;;;;;14.65;7.22;;;77.00;2227.20;;;;;;5063720;28;20361;-72
2023/04/04 08:12:20;;;;;;;;;;;76.90;2227.20;;;;;;5061493;28;20036;-72
2023/04/04 08:14:46;;;;;;;13.68;7.40;;;76.80;2227.20;;;;;;5064127;28;19964;-70
2023/04/04 08:17:12;;;;;;;;;;;76.90;2227.20;;;;;;5065549;28;20031;-71
2023/04/04 08:19:37;;;;;;;16.55;8.15;;;76.90;2227.20;;;;;;5060717;28;20284;-73
2023/04/04 08:22:04;;;;;;;;;;;76.80;2227.20;;;;;;5068967;28;20083;-71
2023/04/04 08:24:30;;;;;;;14.07;7.82;;;76.90;2227.20;;;;;;5062412;28;19947;-71
2023/04/04 08:26:55;;;;;;;;;;;76.90;2227.20;;;;;;5066664;28;20102;-72
2023/04/04 08:29:21;;;;;;;13.73;7.95;;;76.90;2227.20;;;;;;5063920;28;20273;-70
2023/04/04 08:31:47;;;;;;;;;;;76.90;2227.20;;;;;;5064863;28;20032;-70
2023/04/04 08:34:12;;;;;;;14.85;7.90;;;76.90;2227.20;;;;;;5076684;28;19909;-70
2023/04/04 08:36:38;;;;;;;;;;;76.90;2227.20;;;;;;5065505;28;20024;-70
2023/04/04 08:39:04;;;;;;;17.42;8.30;;;76.90;2227.20;;;;;;5066950;28;19948;-70
2023/04/04 08:41:31;;;;;;;;;;;77.00;2227.20;;;;;;5062208;28;20028;-70
2023/04/04 08:44:01;;;;;;;16.25;8.48;;;77.00;2227.20;;;;;;5081860;28;19992;-70
2023/04/04 08:46:28;;;;;;;21.10;9.68;;;77.10;2227.20;;;;;;5066610;28;20044;-69
2023/04/04 08:48:55;;;;;;;13.73;7.68;;;77.20;2227.20;;;;;;5057844;28;20052;-70
2023/04/04 08:51:25;;;;;;;21.25;9.32;;;77.20;2227.20;;;;;;5065973;28;20025;-73
2023/04/04 08:53:51;;;;;;;12.88;7.82;;;77.30;2227.20;;;;;;5057084;28;20108;-72
2023/04/04 08:56:17;;;;;;;13.88;8.73;;;77.40;2227.20;;;;;;5058233;28;20078;-72
2023/04/04 08:58:42;;;;;;;;;;;77.40;2227.20;;;;;;5064494;28;20446;-74
2023/04/04 09:01:09;;;;;;;14.85;8.45;;;77.40;2227.20;;;;;;5064162;28;19951;-72
2023/04/04 09:03:36;;;;;;;20.00;10.90;;;77.40;2227.20;;;;;;5059032;28;20120;-73
2023/04/04 09:06:03;;;;;;;17.88;9.73;;;77.50;2227.20;;;;;;5082892;28;20075;-70
2023/04/04 09:08:30;;;;;;;21.60;9.55;;;77.60;2227.20;;;;;;5056896;28;20512;-74
2023/04/04 09:10:56;;;;;;;15.63;8.32;;;77.60;2227.20;;;;;;5066176;28;20482;-69
2023/04/04 09:13:22;;;;;;;18.50;8.90;;;77.50;2227.20;;;;;;5063588;28;20031;-70
2023/04/04 09:15:49;;;;;;;;;;;77.50;2227.20;;;;;;5068137;28;20040;-71
2023/04/04 09:18:16;;;;;;;15.07;7.40;;;77.50;2227.20;;;;;;5068352;28;20011;-72
2023/04/04 09:20:48;;;;;;;13.70;9.02;;;77.50;2227.20;;;;;;5066024;28;20482;-74
2023/04/04 09:23:16;;;;;;;15.70;9.20;;;77.50;2227.20;;;;;;5065860;28;20039;-72
2023/04/04 09:25:46;;;;;;;22.83;10.10;;;77.40;2227.20;;;;;;5068012;28;20021;-74
2023/04/04 09:28:14;;;;;;;14.50;8.15;;;77.60;2227.20;;;;;;5064056;28;20104;-73
2023/04/04 09:30:40;;;;;;;14.65;7.70;;;77.60;2227.20;;;;;;5061355;28;20040;-72
2023/04/04 09:33:07;;;;;;;;;;;77.50;2227.20;;;;;;5061316;28;20043;-73
2023/04/04 09:35:37;;;;;;;11.85;6.50;;;77.50;2227.20;;;;;;5060145;28;19917;-73
2023/04/04 09:38:05;;;;;;;14.80;8.00;;;77.50;2227.20;;;;;;5066034;28;20120;-72
2023/04/04 09:40:30;;;;;;;17.83;8.35;;;77.50;2227.20;;;;;;5059435;28;20161;-73
2023/04/04 09:43:00;;;;;;;;;;;77.50;2227.20;;;;;;5061247;28;20032;-71
2023/04/04 09:45:25;;;;;;;21.25;10.38;;;77.60;2227.20;;;;;;5061859;28;19921;-71
2023/04/04 09:47:52;;;;;;;;;;;77.60;2227.20;;;;;;5060517;28;20025;-73
2023/04/04 09:50:23;;;;;;;14.10;6.03;;;77.50;2227.20;;;;;;5056750;28;19908;-74
2023/04/04 09:52:49;;;;;;;13.95;6.88;;;77.50;2227.20;;;;;;5060937;28;20116;-73
2023/04/04 09:55:16;;;;;;;15.90;8.43;;;77.50;2227.20;;;;;;5052420;28;20060;-72
2023/04/04 09:57:42;;;;;;;19.55;8.95;;;77.60;2227.20;;;;;;5064071;28;20027;-76
2023/04/04 10:00:08;;;;;;;;;;;77.70;2227.20;;;;;;5060870;28;20031;-70
2023/04/04 10:02:36;;;;;;;19.57;9.83;;;77.60;2227.20;;;;;;5063026;28;19998;-70
2023/04/04 10:05:03;;;;;;;23.88;9.02;;;77.70;2227.20;;;;;;5057759;28;20280;-69
2023/04/04 10:07:31;;;;;;;15.65;7.53;;;77.70;2227.20;;;;;;5066732;28;20044;-70
2023/04/04 10:09:59;;;;;;;18.25;7.53;;;77.60;2227.20;;;;;;5057074;28;20027;-70
2023/04/04 10:12:25;;;;;;;16.83;7.07;;;77.60;2227.20;;;;;;5055659;28;20056;-70
2023/04/04 10:14:57;;;;;;;;;;;77.60;2227.20;;;;;;5062889;28;20060;-70
2023/04/04 10:17:24;;;;;;;15.35;7.88;;;77.70;2227.20;;;;;;5053297;28;19909;-71
2023/04/04 10:19:52;;;;;;;14.38;8.18;;;77.70;2227.20;;;;;;5059222;28;20044;-70
2023/04/04 10:22:21;;;;;;;26.27;11.63;;;77.70;2227.20;;;;;;5059922;28;20029;-72
2023/04/04 10:24:46;;;;;;;27.48;12.35;;;77.70;2227.20;;;;;;5061830;28;20013;-71
2023/04/04 10:27:12;;;;;;;;;;;102.40;2227.20;;;;;;5056807;28;20025;-72
2023/04/04 10:29:38;;;;;;;21.23;9.15;;;77.70;2227.20;;;;;;5056795;28;20305;-70
2023/04/04 10:32:08;;;;;;;;;;;77.70;2227.20;;;;;;5062918;28;20027;-71
2023/04/04 10:34:52;;;;;;;21.15;9.15;;;102.40;2227.20;;;;;;5061691;28;19916;-71
2023/04/04 10:37:28;;;;;;;19.15;8.98;;;77.70;2227.20;;;;;;5061640;28;20025;-72
2023/04/04 10:40:12;;;;;;;14.48;7.13;;;77.70;2227.20;;;;;;5062652;28;20040;-69
2023/04/04 10:42:43;;;;;;;16.58;9.13;;;77.70;2227.20;;;;;;5053915;28;20082;-70
2023/04/04 10:45:12;;;;;;;13.63;8.52;;;77.70;2227.20;;;;;;5062825;28;20053;-70
2023/04/04 10:47:38;;;;;;;17.15;9.20;;;77.70;2227.20;;;;;;5057076;28;20036;-71
2023/04/04 10:50:11;;;;;;;14.80;8.07;;;77.60;2227.20;;;;;;5059390;28;20043;-70
2023/04/04 10:52:39;;;;;;;16.85;9.05;;;77.60;2227.20;;;;;;5060989;28;20025;-71
2023/04/04 10:55:07;;;;;;;15.35;8.93;;;77.60;2227.20;;;;;;5061162;28;20111;-70
2023/04/04 10:57:37;;;;;;;19.48;9.35;;;77.60;2227.20;;;;;;5064936;28;20024;-71
2023/04/04 11:00:12;;;;;;;16.45;9.57;;;77.60;2227.20;;;;;;5061964;28;20110;-71
2023/04/04 11:02:47;;;;;;;19.58;10.65;;;77.50;2227.20;;;;;;5058962;28;20063;-80
2023/04/04 11:05:30;;;;;;;13.52;7.95;;;77.50;2227.20;;;;;;5075161;28;20555;-70
2023/04/04 11:08:00;;;;;;;16.45;8.35;;;77.50;2227.20;;;;;;5060451;28;20480;-71
2023/04/04 11:10:28;;;;;;;19.80;8.88;;;77.60;2227.20;;;;;;5073407;28;20055;-70
2023/04/04 11:12:55;;;;;;;16.75;8.27;;;77.70;2227.20;;;;;;5057685;28;20020;-72
2023/04/04 11:15:25;;;;;;;18.85;9.20;;;77.70;2227.20;;;;;;5063591;28;20125;-70
2023/04/04 11:17:56;;;;;;;17.92;9.23;;;77.60;2227.20;;;;;;5060885;28;20459;-72
2023/04/04 11:20:30;;;;;;;12.95;7.82;;;77.70;2227.20;;;;;;5056046;28;20032;-70
2023/04/04 11:23:48;;;;;;;13.88;8.60;;;77.70;2227.20;;;;;;5064348;28;20470;-73
2023/04/04 11:26:27;;;;;;;17.50;9.52;;;77.70;2227.20;;;;;;5053427;28;20041;-70
2023/04/04 11:29:20;;;;;;;18.15;9.57;;;77.70;2227.20;;;;;;5053659;28;20537;-70
2023/04/04 11:31:48;;;;;;;18.40;8.90;;;77.50;2227.20;;;;;;5049516;28;20401;-70
2023/04/04 11:34:28;;;;;;;16.60;8.80;;;77.60;2227.20;;;;;;5053454;28;20065;-71
2023/04/04 11:36:54;;;;;;;15.68;8.32;;;77.70;2227.20;;;;;;5053603;28;20025;-71
2023/04/04 11:39:23;;;;;;;;;;;77.70;2227.20;;;;;;5053765;28;20028;-70
2023/04/04 11:42:12;;;;;;;13.30;7.15;;;77.60;2227.20;;;;;;5053311;28;19908;-71
2023/04/04 11:45:01;;;;;;;18.17;8.00;;;77.70;2227.20;;;;;;5052991;28;20191;-71
2023/04/04 11:47:28;;;;;;;19.83;8.63;;;77.60;2227.20;;;;;;5051455;28;20032;-70
2023/04/04 11:49:54;;;;;;;14.15;7.57;;;77.60;2227.20;;;;;;5053249;28;20021;-72
2023/04/04 11:52:22;;;;;;;14.77;8.07;;;77.60;2227.20;;;;;;5053021;28;20067;-71
2023/04/04 11:54:49;;;;;;;13.75;8.82;;;77.60;2227.20;;;;;;5053406;28;20551;-71
2023/04/04 11:57:16;;;;;;;13.93;8.48;;;77.70;2227.20;;;;;;5053095;28;20052;-71
2023/04/04 11:59:44;;;;;;;15.95;8.38;;;77.70;2227.20;;;;;;5052915;28;20508;-73
2023/04/04 12:02:11;;;;;;;15.70;8.52;;;77.70;2227.20;;;;;;5060977;28;20037;-71
2023/04/04 12:04:39;;;;;;;13.63;7.78;;;102.40;2227.20;;;;;;5067577;28;20039;-70
2023/04/04 12:07:07;;;;;;;14.60;8.80;;;102.40;2227.20;;;;;;5061933;28;20051;-70
2023/04/04 12:09:33;;;;;;;21.60;8.70;;;77.70;2227.20;;;;;;5061623;28;20032;-70
2023/04/04 12:11:59;;;;;;;13.75;7.72;;;77.60;2227.20;;;;;;5068237;28;20037;-73
2023/04/04 12:14:26;;;;;;;;;;;77.60;2227.20;;;;;;5068317;28;20063;-70
2023/04/04 12:16:53;;;;;;;16.98;6.68;;;77.60;2227.20;;;;;;5061661;28;19920;-71
2023/04/04 12:19:22;;;;;;;14.93;8.27;;;77.60;2227.20;;;;;;5062214;28;20477;-71
2023/04/04 12:21:49;;;;;;;21.40;10.20;;;77.60;2227.20;;;;;;5059362;28;20024;-70
2023/04/04 12:24:15;;;;;;;20.05;8.93;;;77.50;2227.20;;;;;;5064209;28;20094;-70
2023/04/04 12:26:47;;;;;;;19.58;8.18;;;77.50;2227.20;;;;;;5064095;28;20032;-71
2023/04/04 12:29:15;;;;;;;15.23;7.18;;;77.50;2227.20;;;;;;5064610;28;20028;-70
2023/04/04 12:31:43;;;;;;;20.92;9.10;;;77.60;2227.20;;;;;;5063192;28;20056;-71
2023/04/04 12:34:22;;;;;;;14.82;7.95;;;77.60;2227.20;;;;;;5066460;28;20028;-70
2023/04/04 12:36:52;;;;;;;21.17;7.55;;;77.60;2227.20;;;;;;5061671;28;20158;-71
2023/04/04 12:39:20;;;;;;;19.35;8.48;;;77.50;2227.20;;;;;;5057697;28;20033;-70
2023/04/04 12:41:56;;;;;;;14.35;7.43;;;77.50;2227.20;;;;;;5064979;28;20136;-71
2023/04/04 12:44:30;;;;;;;23.23;8.25;;;77.60;2227.20;;;;;;5066811;28;20040;-69
2023/04/04 12:47:00;;;;;;;13.57;6.97;;;77.60;2227.20;;;;;;5061928;28;20021;-71
2023/04/04 12:49:31;;;;;;;17.48;8.80;;;77.60;2227.20;;;;;;5061877;28;20040;-69
2023/04/04 12:52:03;;;;;;;16.92;8.63;;;77.60;2227.20;;;;;;5066403;28;20044;-70
2023/04/04 12:54:34;;;;;;;16.55;8.10;;;77.60;2227.20;;;;;;5062266;28;20488;-71
2023/04/04 12:57:04;;;;;;;19.10;8.55;;;77.70;2227.20;;;;;;5065737;28;20021;-69
2023/04/04 12:59:32;;;;;;;22.15;9.88;;;77.70;2227.20;;;;;;5057211;28;20377;-75
2023/04/04 13:02:01;;;;;;;18.50;8.48;;;77.70;2227.20;;;;;;5065646;28;20482;-70
2023/04/04 13:04:26;;;;;;;16.13;9.48;;;77.60;2227.20;;;;;;5059457;28;20082;-70
2023/04/04 13:06:52;;;;;;;;;;;77.60;2227.20;;;;;;5065422;28;20470;-69
2023/04/04 13:09:19;;;;;;;14.70;7.68;;;77.70;2227.20;;;;;;5056930;28;19905;-72
2023/04/04 13:11:58;;;;;;;18.75;8.63;;;77.60;2227.20;;;;;;5064065;28;20103;-70
2023/04/04 13:14:25;;;;;;;18.65;8.38;;;77.60;2227.20;;;;;;5069543;28;20029;-69
2023/04/04 13:17:05;;;;;;;26.13;8.98;;;77.70;2227.20;;;;;;5067384;28;20501;-70
2023/04/04 13:19:31;;;;;;;16.08;10.27;;;77.70;2227.20;;;;;;5061064;28;20025;-70
2023/04/04 13:21:56;;;;;;;;;;;77.70;2227.20;;;;;;5060815;28;20107;-70